Time;durP1;ratioP1;P1;durP2;ratioP2;P2;SDS_P1;SDS_P2;PMS_P1;PMS_P2;Temp;Humidity;BMP_temperature;BMP_pressure;BME280_temperature;BME280_humidity;BME280_pressure;Samples;Min_cycle;Max_cycle;Signal;HPM_P1;HPM_P2
2023/03/11 00:00:31;;;;;;;4.90;3.00;;;;;;;1.05;100.00;92798.97;5031861;28;20045;-61
2023/03/11 00:03:00;;;;;;;4.38;2.80;;;;;;;0.80;100.00;92802.38;5031907;28;20060;-62
2023/03/11 00:05:39;;;;;;;5.10;2.83;;;;;;;0.71;100.00;92794.66;5035903;28;20040;-61
2023/03/11 00:08:08;;;;;;;5.25;3.10;;;;;;;0.76;100.00;92804.31;5037736;28;20033;-61
2023/03/11 00:10:38;;;;;;;5.25;2.97;;;;;;;0.90;100.00;92798.19;5031907;28;20046;-61
2023/03/11 00:13:06;;;;;;;4.30;2.50;;;;;;;0.88;100.00;92800.50;5031535;28;20049;-61
2023/03/11 00:15:33;;;;;;;5.18;3.17;;;;;;;0.79;100.00;92803.56;5031944;28;20446;-61
2023/03/11 00:18:00;;;;;;;5.13;2.85;;;;;;;0.73;100.00;92802.38;5030238;28;20052;-61
2023/03/11 00:20:33;;;;;;;4.93;2.85;;;;;;;0.90;100.00;92825.94;5031851;28;20094;-61
2023/03/11 00:23:01;;;;;;;4.85;3.00;;;;;;;0.72;100.00;92822.41;5031369;28;20491;-61
2023/03/11 00:25:30;;;;;;;5.13;3.20;;;;;;;0.88;100.00;92824.78;5031626;28;20291;-61
2023/03/11 00:27:57;;;;;;;4.80;2.85;;;;;;;0.64;100.00;92810.03;5028936;28;20063;-62
2023/03/11 00:30:24;;;;;;;29.10;13.95;;;;;;;0.82;100.00;92802.00;5017885;28;20045;-62
2023/03/11 00:32:54;;;;;;;8.82;5.25;;;;;;;0.72;100.00;92798.88;5029975;28;20041;-62
2023/03/11 00:35:24;;;;;;;5.25;3.35;;;;;;;0.47;100.00;92801.50;5031585;28;20069;-61
2023/03/11 00:38:15;;;;;;;5.23;3.00;;;;;;;0.75;100.00;92795.44;5030845;28;20075;-62
2023/03/11 00:40:45;;;;;;;4.85;2.70;;;;;;;0.70;100.00;92798.50;5031105;28;20049;-61
2023/03/11 00:43:12;;;;;;;4.70;2.70;;;;;;;0.93;100.00;92794.72;5031168;28;20075;-62
2023/03/11 00:45:39;;;;;;;4.95;3.03;;;;;;;0.59;100.00;92790.34;5031317;28;20045;-61
2023/03/11 00:48:06;;;;;;;5.03;3.30;;;;;;;0.51;100.00;92782.63;5030218;28;20766;-62
2023/03/11 00:50:36;;;;;;;5.43;3.00;;;;;;;0.82;100.00;92786.56;5031179;28;20061;-61
2023/03/11 00:53:03;;;;;;;6.75;3.30;;;;;;;0.82;100.00;92791.22;5034840;28;20037;-61
2023/03/11 00:55:32;;;;;;;4.93;3.00;;;;;;;0.66;100.00;92810.44;5039896;28;20049;-61
2023/03/11 00:58:02;;;;;;;4.65;2.80;;;;;;;0.77;100.00;92805.88;5030320;28;20042;-61
2023/03/11 01:00:30;;;;;;;4.63;2.65;;;;;;;0.72;100.00;92831.28;5040268;28;20490;-61
2023/03/11 01:02:58;;;;;;;5.93;3.40;;;;;;;0.84;100.00;92824.00;5032890;28;20478;-61
2023/03/11 01:05:28;;;;;;;4.40;2.70;;;;;;;0.85;100.00;92817.47;5030868;28;20037;-61
2023/03/11 01:07:55;;;;;;;5.05;2.50;;;;;;;0.88;100.00;92803.97;5030368;28;20045;-61
2023/03/11 01:10:21;;;;;;;4.28;2.70;;;;;;;0.62;100.00;92788.81;5030782;28;20057;-61
2023/03/11 01:12:48;;;;;;;4.70;2.53;;;;;;;0.64;100.00;92794.63;5030040;28;20433;-62
2023/03/11 01:15:19;;;;;;;3.87;2.50;;;;;;;0.70;100.00;92800.44;5040658;28;20049;-59
2023/03/11 01:17:46;;;;;;;5.10;2.72;;;;;;;0.73;100.00;92802.38;5032627;28;20041;-60
2023/03/11 01:20:13;;;;;;;6.53;3.85;;;;;;;0.70;100.00;92806.59;5030483;28;20445;-60
2023/03/11 01:22:40;;;;;;;4.28;2.40;;;;;;;0.66;100.00;92800.41;5029974;28;20048;-56
2023/03/11 01:25:09;;;;;;;4.30;2.67;;;;;;;0.68;100.00;92790.00;5030501;28;20045;-60
2023/03/11 01:27:36;;;;;;;8.67;4.57;;;;;;;0.70;100.00;92787.69;5042531;28;20280;-61
2023/03/11 01:30:03;;;;;;;5.20;2.30;;;;;;;0.69;100.00;92775.34;5011903;28;20050;-60
2023/03/11 01:32:29;;;;;;;4.28;2.50;;;;;;;0.69;100.00;92796.19;5020940;28;20498;-60
2023/03/11 01:34:56;;;;;;;4.70;2.75;;;;;;;0.64;100.00;92802.72;5029714;28;20062;-61
2023/03/11 01:37:23;;;;;;;4.72;2.40;;;;;;;0.61;100.00;92811.59;5028903;28;20053;-60
2023/03/11 01:39:50;;;;;;;4.50;2.57;;;;;;;0.39;100.00;92806.09;5029534;28;20057;-60
2023/03/11 01:42:16;;;;;;;5.22;2.97;;;;;;;0.32;100.00;92805.25;5028803;28;20540;-61
2023/03/11 01:44:43;;;;;;;4.78;2.75;;;;;;;0.34;100.00;92792.97;5028203;28;20102;-60
2023/03/11 01:47:09;;;;;;;6.35;3.45;;;;;;;0.22;100.00;92787.09;5030529;28;20056;-60
2023/03/11 01:49:40;;;;;;;4.43;2.53;;;;;;;0.45;100.00;92792.25;5030152;28;20055;-60
2023/03/11 01:52:07;;;;;;;3.97;2.17;;;;;;;0.38;100.00;92798.34;5029344;28;20541;-60
2023/03/11 01:54:38;;;;;;;3.95;2.30;;;;;;;0.45;100.00;92793.00;5027714;28;20418;-60
2023/03/11 01:57:10;;;;;;;4.63;2.63;;;;;;;0.35;100.00;92797.19;5018536;28;20041;-60
2023/03/11 01:59:42;;;;;;;4.88;3.03;;;;;;;0.16;100.00;92784.78;5024978;28;20052;-60
2023/03/11 02:02:16;;;;;;;4.35;2.80;;;;;;;0.41;100.00;92804.94;5028980;28;20741;-60
2023/03/11 02:04:43;;;;;;;5.03;2.60;;;;;;;0.38;100.00;92784.88;5029564;28;20555;-60
2023/03/11 02:07:11;;;;;;;6.00;2.60;;;;;;;0.55;100.00;92775.31;5029819;28;20037;-60
2023/03/11 02:09:38;;;;;;;4.75;2.58;;;;;;;0.38;100.00;92777.56;5029884;28;20045;-60
2023/03/11 02:12:08;;;;;;;5.57;2.53;;;;;;;0.38;100.00;92768.66;5029567;28;20047;-60
2023/03/11 02:14:37;;;;;;;4.90;2.80;;;;;;;0.54;100.00;92765.66;5029847;28;20123;-60
2023/03/11 02:17:04;;;;;;;4.77;2.83;;;;;;;0.34;100.00;92773.28;5029402;28;20046;-61
2023/03/11 02:19:48;;;;;;;4.82;2.90;;;;;;;0.36;100.00;92771.78;5029732;28;20059;-61
2023/03/11 02:22:15;;;;;;;5.38;2.60;;;;;;;0.36;100.00;92758.28;5028931;28;20266;-60
2023/03/11 02:24:57;;;;;;;5.28;3.03;;;;;;;0.26;100.00;92772.47;5029128;28;20465;-60
2023/03/11 02:27:26;;;;;;;4.70;2.85;;;;;;;0.28;100.00;92796.38;5029723;28;20072;-60
2023/03/11 02:29:55;;;;;;;4.70;2.90;;;;;;;0.33;100.00;92804.91;5029062;28;20053;-60
2023/03/11 02:32:23;;;;;;;5.15;2.72;;;;;;;0.32;100.00;92787.16;5029603;28;20045;-60
2023/03/11 02:34:49;;;;;;;5.22;3.17;;;;;;;0.29;100.00;92790.63;5029177;28;20049;-60
2023/03/11 02:37:17;;;;;;;5.05;2.80;;;;;;;0.43;100.00;92797.25;5029593;28;20042;-60
2023/03/11 02:39:46;;;;;;;5.82;3.15;;;;;;;0.50;100.00;92792.63;5029152;28;20076;-60
2023/03/11 02:42:30;;;;;;;6.50;3.07;;;;;;;0.56;100.00;92809.25;5029522;28;20045;-60
2023/03/11 02:45:03;;;;;;;6.10;3.63;;;;;;;0.13;100.00;92814.44;5016007;28;20060;-60
2023/03/11 02:47:30;;;;;;;7.28;3.55;;;;;;;-0.19;100.00;92806.88;5029740;28;20045;-60
2023/03/11 02:49:56;;;;;;;6.07;3.75;;;;;;;-0.34;100.00;92830.28;5029146;28;20072;-60
2023/03/11 02:52:32;;;;;;;6.70;4.05;;;;;;;-0.36;100.00;92843.38;5028449;28;20058;-60
2023/03/11 02:54:59;;;;;;;6.03;3.60;;;;;;;-0.31;100.00;92834.91;5020539;28;20051;-61
2023/03/11 02:57:25;;;;;;;6.90;3.70;;;;;;;-0.45;100.00;92840.97;5031987;28;20040;-60
2023/03/11 02:59:52;;;;;;;6.15;3.42;;;;;;;-0.35;100.00;92838.75;5031029;28;20045;-62
2023/03/11 03:02:19;;;;;;;5.60;3.78;;;;;;;-0.39;100.00;92837.94;5033288;28;20057;-60
2023/03/11 03:04:46;;;;;;;6.43;3.03;;;;;;;-0.33;100.00;92812.94;5032672;28;20094;-60
2023/03/11 03:07:13;;;;;;;6.10;3.53;;;;;;;-0.64;100.00;92822.34;5027082;28;20094;-60
2023/03/11 03:09:39;;;;;;;7.85;3.63;;;;;;;-0.63;100.00;92815.78;5013070;28;20056;-61
2023/03/11 03:12:06;;;;;;;6.30;3.70;;;;;;;-0.78;100.00;92814.13;5036072;28;20039;-61
2023/03/11 03:14:33;;;;;;;5.90;3.58;;;;;;;-0.63;100.00;92830.03;5025689;28;20556;-60
2023/03/11 03:16:59;;;;;;;6.47;3.22;;;;;;;-0.72;100.00;92834.97;5032332;28;20056;-60
2023/03/11 03:19:26;;;;;;;5.57;3.40;;;;;;;-0.62;100.00;92828.13;5032601;28;20056;-61
2023/03/11 03:21:53;;;;;;;6.25;3.25;;;;;;;-0.70;100.00;92821.13;5031331;28;20050;-60
2023/03/11 03:24:20;;;;;;;6.57;3.05;;;;;;;-0.75;100.00;92826.84;5032609;28;20049;-60
2023/03/11 03:26:46;;;;;;;6.55;3.20;;;;;;;-0.75;100.00;92829.53;5032130;28;20045;-60
2023/03/11 03:29:13;;;;;;;7.72;3.60;;;;;;;-0.76;100.00;92826.06;5032302;28;20049;-60
2023/03/11 03:31:40;;;;;;;6.13;3.30;;;;;;;-0.87;100.00;92825.94;5032576;28;20046;-60
2023/03/11 03:34:07;;;;;;;7.05;3.75;;;;;;;-0.88;100.00;92816.34;5031704;28;21559;-60
2023/03/11 03:36:33;;;;;;;7.05;3.40;;;;;;;-0.90;100.00;92809.78;5032549;28;20037;-60
2023/03/11 03:39:00;;;;;;;7.25;3.08;;;;;;;-0.92;100.00;92820.16;5030690;28;20048;-60
2023/03/11 03:41:27;;;;;;;5.90;2.90;;;;;;;-0.73;100.00;92822.63;5031052;28;20033;-60
2023/03/11 03:43:54;;;;;;;8.60;3.30;;;;;;;-0.84;100.00;92817.13;5031919;28;20045;-60
2023/03/11 03:46:21;;;;;;;5.70;3.17;;;;;;;-0.86;100.00;92815.97;5031210;28;20049;-60
2023/03/11 03:48:48;;;;;;;5.72;3.35;;;;;;;-1.02;100.00;92824.28;5030615;28;20033;-61
2023/03/11 03:51:15;;;;;;;5.30;2.67;;;;;;;-1.02;100.00;92832.34;5032286;28;20063;-62
2023/03/11 03:53:42;;;;;;;5.28;2.33;;;;;;;-0.84;100.00;92848.69;5031711;28;20048;-58
2023/03/11 03:56:11;;;;;;;4.73;3.03;;;;;;;-1.10;100.00;92836.09;5032374;28;20042;-60
2023/03/11 03:58:38;;;;;;;11.05;5.70;;;;;;;-0.94;100.00;92833.19;5032177;28;20389;-60
2023/03/11 04:01:06;;;;;;;6.43;3.53;;;;;;;-1.13;100.00;92832.22;5031850;28;20037;-61
2023/03/11 04:03:34;;;;;;;4.93;2.50;;;;;;;-1.10;100.00;92838.81;5031843;28;20050;-60
2023/03/11 04:06:09;;;;;;;4.25;2.40;;;;;;;-1.09;100.00;92843.78;5031606;28;20083;-61
2023/03/11 04:08:36;;;;;;;5.23;2.87;;;;;;;-1.25;100.00;92859.38;5014024;28;20390;-60
2023/03/11 04:11:03;;;;;;;6.63;2.95;;;;;;;-1.10;100.00;92874.56;5015235;28;20080;-60
2023/03/11 04:13:30;;;;;;;6.82;3.58;;;;;;;-1.27;100.00;92867.06;5031704;28;20099;-60
2023/03/11 04:15:57;;;;;;;4.47;2.33;;;;;;;-1.16;100.00;92875.28;5030289;28;20037;-60
2023/03/11 04:18:23;;;;;;;5.50;2.90;;;;;;;-1.23;100.00;92876.75;5031888;28;20098;-60
2023/03/11 04:20:50;;;;;;;5.87;2.60;;;;;;;-1.28;100.00;92877.03;5031210;28;20045;-60
2023/03/11 04:23:17;;;;;;;6.30;2.50;;;;;;;-1.35;100.00;92863.50;5039305;28;20448;-61
2023/03/11 04:25:43;;;;;;;6.25;2.92;;;;;;;-1.45;100.00;92872.22;5036674;28;20098;-60
2023/03/11 04:28:10;;;;;;;4.53;2.60;;;;;;;-1.38;100.00;92864.25;5030012;28;20567;-60
2023/03/11 04:30:37;;;;;;;4.63;2.70;;;;;;;-1.42;100.00;92861.50;5041055;28;20048;-60
2023/03/11 04:33:04;;;;;;;5.07;2.30;;;;;;;-1.52;100.00;92861.38;5033223;28;20049;-61
2023/03/11 04:35:31;;;;;;;4.85;2.15;;;;;;;-1.41;100.00;92848.81;5031518;28;20054;-61
2023/03/11 04:37:59;;;;;;;5.55;3.15;;;;;;;-1.51;100.00;92844.06;5030842;28;20072;-60
2023/03/11 04:40:27;;;;;;;6.45;2.45;;;;;;;-1.58;100.00;92844.00;5031505;28;20038;-61
2023/03/11 04:42:53;;;;;;;4.95;2.78;;;;;;;-1.72;100.00;92860.72;5029552;28;20057;-61
2023/03/11 04:45:20;;;;;;;6.77;3.00;;;;;;;-1.76;100.00;92863.34;5031094;28;20053;-60
2023/03/11 04:47:48;;;;;;;6.15;2.70;;;;;;;-1.85;100.00;92873.59;5030723;28;20049;-61
2023/03/11 04:50:15;;;;;;;5.25;2.80;;;;;;;-1.84;100.00;92870.53;5031133;28;20441;-61
2023/03/11 04:52:42;;;;;;;5.75;2.55;;;;;;;-1.90;100.00;92882.75;5030608;28;20046;-61
2023/03/11 04:55:09;;;;;;;6.75;3.35;;;;;;;-1.99;100.00;92889.53;5030953;28;20053;-61
2023/03/11 04:57:36;;;;;;;7.47;3.47;;;;;;;-1.95;100.00;92895.72;5031127;28;20103;-61
2023/03/11 05:00:10;;;;;;;8.30;4.25;;;;;;;-1.94;100.00;92895.38;5030294;28;20051;-60
2023/03/11 05:02:38;;;;;;;7.07;3.50;;;;;;;-2.14;100.00;92891.22;5031078;28;20334;-61
2023/03/11 05:05:07;;;;;;;6.50;2.85;;;;;;;-2.13;100.00;92892.75;5009272;28;20052;-60
2023/03/11 05:07:35;;;;;;;5.28;2.30;;;;;;;-2.13;100.00;92895.44;5015140;28;20037;-60
2023/03/11 05:10:03;;;;;;;4.65;2.50;;;;;;;-2.34;100.00;92893.97;5010505;28;20053;-60
2023/03/11 05:12:30;;;;;;;5.47;2.72;;;;;;;-2.28;100.00;92902.53;5026294;28;20045;-60
2023/03/11 05:14:57;;;;;;;5.68;2.65;;;;;;;-2.24;100.00;92903.34;5030139;28;20155;-60
2023/03/11 05:17:24;;;;;;;5.10;2.70;;;;;;;-2.23;100.00;92905.69;5030021;28;20042;-61
2023/03/11 05:19:52;;;;;;;4.18;2.42;;;;;;;-2.26;100.00;92908.31;5030196;28;20053;-60
2023/03/11 05:22:19;;;;;;;4.33;2.23;;;;;;;-2.21;100.00;92908.03;5030772;28;20049;-60
2023/03/11 05:24:47;;;;;;;5.03;2.00;;;;;;;-2.33;100.00;92902.84;5029845;28;20048;-60
2023/03/11 05:27:16;;;;;;;5.25;2.17;;;;;;;-2.28;100.00;92902.53;5030575;28;20055;-61
2023/03/11 05:29:44;;;;;;;4.43;2.67;;;;;;;-2.23;100.00;92902.22;5029544;28;20048;-60
2023/03/11 05:32:12;;;;;;;6.47;2.80;;;;;;;-2.28;100.00;92918.66;5030502;28;20517;-60
2023/03/11 05:34:39;;;;;;;5.57;2.70;;;;;;;-2.17;100.00;92918.81;5030254;28;20076;-60
2023/03/11 05:37:06;;;;;;;4.97;2.20;;;;;;;-2.25;100.00;92909.88;5029551;28;20596;-60
2023/03/11 05:39:33;;;;;;;4.63;2.20;;;;;;;-2.17;100.00;92916.91;5030123;28;20056;-60
2023/03/11 05:42:00;;;;;;;4.68;2.30;;;;;;;-2.14;100.00;92905.44;5029830;28;21754;-61
2023/03/11 05:44:27;;;;;;;4.65;2.35;;;;;;;-2.24;100.00;92896.06;5030113;28;20049;-61
2023/03/11 05:46:53;;;;;;;4.47;2.43;;;;;;;-2.25;100.00;92893.75;5033789;28;20048;-60
2023/03/11 05:49:20;;;;;;;4.65;2.10;;;;;;;-2.27;100.00;92888.72;5037661;28;20045;-61
2023/03/11 05:51:48;;;;;;;4.15;2.40;;;;;;;-2.43;100.00;92888.09;5029505;28;20041;-60
2023/03/11 05:54:15;;;;;;;5.53;2.03;;;;;;;-2.17;100.00;92891.94;5028857;28;20069;-60
2023/03/11 05:56:43;;;;;;;5.18;2.40;;;;;;;-2.05;100.00;92886.38;5029604;28;20387;-61
2023/03/11 05:59:12;;;;;;;6.27;2.47;;;;;;;-2.01;100.00;92903.34;5029933;28;20048;-60
2023/03/11 06:01:43;;;;;;;3.90;2.00;;;;;;;-1.77;100.00;92890.59;5029392;28;20064;-60
2023/03/11 06:04:10;;;;;;;4.38;2.15;;;;;;;-1.66;100.00;92896.94;5029807;28;20049;-61
2023/03/11 06:06:38;;;;;;;3.92;2.10;;;;;;;-1.58;100.00;92908.56;5029802;28;20235;-61
2023/03/11 06:09:05;;;;;;;4.80;1.95;;;;;;;-1.78;100.00;92900.59;5029466;28;20126;-60
2023/03/11 06:11:31;;;;;;;4.80;2.27;;;;;;;-2.02;100.00;92899.84;5029968;28;20076;-60
2023/03/11 06:13:58;;;;;;;5.00;2.17;;;;;;;-1.88;100.00;92903.91;5029316;28;20045;-60
2023/03/11 06:16:25;;;;;;;6.32;2.15;;;;;;;-2.05;100.00;92905.97;5029574;28;20054;-61
2023/03/11 06:18:52;;;;;;;4.57;2.22;;;;;;;-1.93;100.00;92917.66;5027133;28;20052;-61
2023/03/11 06:21:22;;;;;;;4.25;2.25;;;;;;;-1.72;100.00;92909.91;5028934;28;20047;-60
2023/03/11 06:23:49;;;;;;;3.93;2.33;;;;;;;-1.74;100.00;92912.19;5028339;28;20425;-61
2023/03/11 06:26:21;;;;;;;4.13;1.88;;;;;;;-1.84;100.00;92918.19;5027551;28;20091;-62
2023/03/11 06:28:49;;;;;;;4.28;2.15;;;;;;;-1.77;100.00;92921.00;5029657;28;20120;-60
2023/03/11 06:31:24;;;;;;;5.32;2.20;;;;;;;-1.70;100.00;92923.00;5032663;28;20045;-60
2023/03/11 06:33:51;;;;;;;4.30;2.40;;;;;;;-1.63;100.00;92920.41;5030321;28;20433;-63
2023/03/11 06:36:19;;;;;;;4.67;2.37;;;;;;;-1.56;100.00;92923.19;5032392;28;20113;-61
2023/03/11 06:38:47;;;;;;;5.15;1.95;;;;;;;-1.63;100.00;92923.09;5031823;28;20094;-60
2023/03/11 06:41:13;;;;;;;6.18;2.20;;;;;;;-1.33;100.00;92923.09;5030915;28;20048;-61
2023/03/11 06:43:40;;;;;;;4.20;2.40;;;;;;;-1.53;100.00;92932.44;5032436;28;20111;-61
2023/03/11 06:46:12;;;;;;;5.78;2.60;;;;;;;-1.50;100.00;92943.28;5018826;28;21796;-60
2023/03/11 06:48:39;;;;;;;6.17;2.80;;;;;;;-1.54;100.00;92952.44;5032357;28;20249;-61
2023/03/11 06:51:06;;;;;;;5.45;2.30;;;;;;;-1.26;100.00;92946.69;5037289;28;20929;-60
2023/03/11 06:53:33;;;;;;;5.35;2.80;;;;;;;-1.38;100.00;92949.59;5039015;28;20367;-60
2023/03/11 06:56:04;;;;;;;5.07;3.08;;;;;;;-1.51;100.00;92946.31;5031719;28;20049;-60
2023/03/11 06:58:33;;;;;;;6.72;3.28;;;;;;;-1.41;100.00;92959.94;5038553;28;20041;-61
2023/03/11 07:01:06;;;;;;;5.40;2.70;;;;;;;-1.22;100.00;92955.56;5031402;28;20049;-60
2023/03/11 07:03:33;;;;;;;8.10;3.55;;;;;;;-1.43;100.00;92964.91;5031858;28;20499;-61
2023/03/11 07:06:00;;;;;;;6.45;3.10;;;;;;;-1.03;100.00;92970.81;5031315;28;20468;-60
2023/03/11 07:08:27;;;;;;;7.03;2.80;;;;;;;-0.86;100.00;92967.56;5031634;28;20522;-60
2023/03/11 07:11:15;;;;;;;8.50;3.17;;;;;;;-0.92;100.00;92965.56;5031222;28;20087;-62
2023/03/11 07:13:42;;;;;;;6.40;3.10;;;;;;;-1.25;100.00;92973.22;5031109;28;20037;-60
2023/03/11 07:16:21;;;;;;;6.07;2.70;;;;;;;-1.31;100.00;92977.38;5031845;28;20041;-61
2023/03/11 07:18:48;;;;;;;5.75;2.90;;;;;;;-1.41;100.00;92984.16;5031240;28;20053;-61
2023/03/11 07:21:18;;;;;;;6.45;3.00;;;;;;;-1.52;100.00;93001.28;5020950;28;20618;-61
2023/03/11 07:23:48;;;;;;;8.82;3.50;;;;;;;-1.31;100.00;92993.53;5020035;28;20053;-61
2023/03/11 07:26:14;;;;;;;7.87;2.90;;;;;;;-1.05;100.00;92983.84;5030603;28;20049;-60
2023/03/11 07:28:43;;;;;;;7.72;2.85;;;;;;;-0.86;100.00;92983.72;5030047;28;20091;-61
2023/03/11 07:31:12;;;;;;;6.40;2.67;;;;;;;-0.61;100.00;92975.94;5030518;28;20498;-61
2023/03/11 07:33:39;;;;;;;6.15;2.92;;;;;;;-0.25;98.32;92973.63;5030546;28;20518;-62
2023/03/11 07:36:12;;;;;;;5.60;2.83;;;;;;;-0.03;94.99;92988.09;5030616;28;20045;-61
2023/03/11 07:38:39;;;;;;;6.90;2.60;;;;;;;0.54;87.84;92990.50;5030566;28;20050;-61
2023/03/11 07:41:10;;;;;;;6.50;2.83;;;;;;;1.10;86.98;92988.53;5030012;28;20130;-61
2023/03/11 07:43:37;;;;;;;7.40;2.90;;;;;;;1.26;83.95;92984.75;5031247;28;20053;-61
2023/03/11 07:46:09;;;;;;;6.68;2.80;;;;;;;0.30;86.02;92993.75;5030457;28;20438;-61
2023/03/11 07:48:38;;;;;;;6.82;3.13;;;;;;;-0.57;92.33;93002.94;5031077;28;20041;-61
2023/03/11 07:51:08;;;;;;;5.23;2.97;;;;;;;-0.99;94.53;92995.09;5030352;28;20505;-62
2023/03/11 07:53:35;;;;;;;6.85;2.63;;;;;;;-0.89;97.38;93006.00;5030599;28;20029;-64
2023/03/11 07:56:03;;;;;;;6.40;2.70;;;;;;;-1.33;100.00;93016.53;5028545;28;20044;-60
2023/03/11 07:58:29;;;;;;;8.60;4.45;;;;;;;-0.62;99.97;93017.50;5022630;28;20037;-60
2023/03/11 08:01:03;;;;;;;8.57;4.45;;;;;;;-0.15;95.79;93015.31;5029744;28;20060;-61
2023/03/11 08:03:30;;;;;;;7.70;3.40;;;;;;;0.09;93.83;93016.72;5030463;28;20499;-61
2023/03/11 08:05:56;;;;;;;6.68;2.92;;;;;;;0.95;87.51;93027.44;5031060;28;20060;-61
2023/03/11 08:08:23;;;;;;;9.55;4.43;;;;;;;0.50;84.59;93021.31;5033033;28;20038;-60
2023/03/11 08:10:50;;;;;;;13.25;7.05;;;;;;;0.51;86.49;93018.25;5030285;28;20060;-60
2023/03/11 08:13:17;;;;;;;10.90;5.00;;;;;;;0.93;84.29;93027.81;5030519;28;20388;-61
2023/03/11 08:15:44;;;;;;;6.83;3.63;;;;;;;1.01;81.73;93031.31;5030310;28;20037;-62
2023/03/11 08:18:10;;;;;;;8.38;3.00;;;;;;;0.35;79.54;93018.50;5030752;28;20102;-61
2023/03/11 08:20:37;;;;;;;9.18;4.30;;;;;;;1.16;78.99;93016.72;5030278;28;20045;-62
2023/03/11 08:23:04;;;;;;;8.13;4.18;;;;;;;1.28;77.36;93010.22;5029955;28;20497;-62
2023/03/11 08:25:31;;;;;;;9.75;3.88;;;;;;;0.77;79.08;93019.22;5029044;28;20049;-61
2023/03/11 08:27:58;;;;;;;5.97;3.17;;;;;;;1.52;75.82;93005.31;5028391;28;20075;-61
2023/03/11 08:30:24;;;;;;;6.00;3.30;;;;;;;1.39;73.41;93010.31;5030317;28;20054;-62
2023/03/11 08:32:51;;;;;;;4.78;2.67;;;;;;;2.98;67.89;93012.88;5029767;28;20482;-63
2023/03/11 08:35:18;;;;;;;4.43;2.53;;;;;;;2.35;64.54;93017.91;5029886;28;20116;-63
2023/03/11 08:37:45;;;;;;;4.80;2.42;;;;;;;5.10;55.97;93025.38;5040807;28;20578;-62
2023/03/11 08:40:12;;;;;;;10.80;5.10;;;;;;;5.82;51.80;93019.19;5028789;28;20041;-63
2023/03/11 08:42:38;;;;;;;5.38;2.78;;;;;;;5.92;51.84;93025.69;5028676;28;20045;-63
2023/03/11 08:45:06;;;;;;;5.10;2.40;;;;;;;3.84;51.92;93035.50;5028056;28;20081;-63
2023/03/11 08:47:35;;;;;;;4.13;2.40;;;;;;;4.18;52.90;93039.22;5029965;28;20048;-63
2023/03/11 08:50:05;;;;;;;6.32;3.30;;;;;;;5.98;48.46;93040.44;5011157;28;20050;-63
2023/03/11 08:52:31;;;;;;;4.33;2.43;;;;;;;7.66;44.03;93042.56;5022721;28;20045;-62
2023/03/11 08:54:58;;;;;;;6.25;2.65;;;;;;;5.72;46.41;93041.88;5029170;28;20094;-63
2023/03/11 08:57:25;;;;;;;5.80;2.65;;;;;;;5.11;47.29;93037.81;5029253;28;20041;-64
2023/03/11 08:59:51;;;;;;;5.15;2.30;;;;;;;6.10;46.18;93039.13;5028963;28;20040;-63
2023/03/11 09:02:18;;;;;;;4.35;2.33;;;;;;;5.49;45.39;93039.75;5029514;28;20476;-62
2023/03/11 09:04:45;;;;;;;3.23;1.60;;;;;;;3.68;44.68;93046.78;5028812;28;20045;-61
2023/03/11 09:07:13;;;;;;;4.70;1.60;;;;;;;4.52;43.51;93046.00;5029367;28;20049;-62
2023/03/11 09:09:39;;;;;;;3.03;1.80;;;;;;;4.39;43.01;93035.59;5029218;28;20038;-62
2023/03/11 09:12:07;;;;;;;4.72;1.90;;;;;;;6.83;41.81;93043.16;5010671;28;20857;-61
2023/03/11 09:14:34;;;;;;;4.07;1.92;;;;;;;5.99;40.45;93034.56;5029280;28;20054;-68
2023/03/11 09:17:01;;;;;;;3.27;1.80;;;;;;;5.53;42.15;93044.00;5028806;28;20437;-62
2023/03/11 09:19:27;;;;;;;3.63;1.60;;;;;;;5.98;37.67;93043.16;5029119;28;20076;-61
2023/03/11 09:21:54;;;;;;;3.45;1.60;;;;;;;10.32;33.73;93036.47;5028528;28;20046;-61
2023/03/11 09:24:21;;;;;;;3.72;1.80;;;;;;;5.62;38.57;93042.75;5029482;28;20563;-61
2023/03/11 09:26:47;;;;;;;4.95;1.60;;;;;;;5.20;40.88;93045.50;5028023;28;20037;-61
2023/03/11 09:29:14;;;;;;;2.87;1.40;;;;;;;11.20;33.28;93037.72;5028595;28;20107;-62
2023/03/11 09:31:41;;;;;;;3.75;1.60;;;;;;;6.06;36.14;93049.28;5028742;28;20038;-60
2023/03/11 09:34:11;;;;;;;3.30;1.80;;;;;;;8.09;36.51;93047.22;5028823;28;20449;-62
2023/03/11 09:36:40;;;;;;;4.05;1.50;;;;;;;11.54;31.85;93040.97;5028100;28;20338;-61
2023/03/11 09:39:08;;;;;;;3.63;1.70;;;;;;;6.84;34.41;93049.38;5028041;28;21439;-61
2023/03/11 09:42:16;;;;;;;2.37;1.03;;;;;;;9.98;29.19;93055.00;5028672;28;20045;-61
2023/03/11 09:44:59;;;;;;;4.18;1.92;;;;;;;10.35;27.53;93041.09;4996216;28;20657;-61
2023/03/11 09:47:33;;;;;;;2.35;1.40;;;;;;;10.32;26.68;93053.69;5025725;28;20050;-61
2023/03/11 09:50:13;;;;;;;2.80;1.40;;;;;;;9.65;26.82;93059.00;5022525;28;20386;-61
2023/03/11 09:53:21;;;;;;;3.83;1.20;;;;;;;12.05;26.04;93049.09;5029097;28;20049;-61
2023/03/11 09:55:53;;;;;;;3.93;1.60;;;;;;;7.68;29.35;93072.19;5016155;28;20542;-61
2023/03/11 09:58:46;;;;;;;3.58;1.83;;;;;;;9.26;29.66;93063.47;5028133;28;20486;-61
2023/03/11 10:01:19;;;;;;;4.28;2.10;;;;;;;6.69;31.94;93065.97;5027860;28;20616;-62
2023/03/11 10:03:47;;;;;;;3.50;1.83;;;;;;;10.87;29.93;93061.91;5027931;28;20060;-61
2023/03/11 10:06:27;;;;;;;4.18;1.95;;;;;;;7.31;34.45;93074.00;5027195;28;20292;-62
2023/03/11 10:09:23;;;;;;;4.60;2.10;;;;;;;9.10;32.74;93065.00;5028274;28;20465;-61
2023/03/11 10:12:16;;;;;;;3.97;2.03;;;;;;;10.87;29.13;93055.66;5028334;28;20383;-61
2023/03/11 10:14:49;;;;;;;3.88;1.77;;;;;;;6.75;37.91;93067.03;5020077;28;20102;-61
2023/03/11 10:17:43;;;;;;;5.20;2.30;;;;;;;12.48;30.21;93049.56;5019758;28;20060;-68
2023/03/11 10:20:18;;;;;;;3.65;1.98;;;;;;;6.88;36.90;93056.34;5014693;28;20556;-63
2023/03/11 10:22:58;;;;;;;3.63;2.00;;;;;;;10.92;31.48;93046.84;5026791;28;20045;-61
2023/03/11 10:26:06;;;;;;;4.93;2.58;;;;;;;10.97;31.59;93040.84;5028707;28;20436;-66
2023/03/11 10:28:48;;;;;;;3.05;1.50;;;;;;;14.86;27.12;93033.97;5018694;28;20261;-70
2023/03/11 10:31:26;;;;;;;4.93;2.17;;;;;;;10.64;30.12;93032.78;5027255;28;20758;-65
2023/03/11 10:34:18;;;;;;;4.63;2.33;;;;;;;6.02;38.70;93046.59;5027811;28;20045;-65
2023/03/11 10:36:53;;;;;;;3.83;2.27;;;;;;;7.38;38.73;93046.56;5017757;28;20046;-65
2023/03/11 10:39:21;;;;;;;4.10;2.17;;;;;;;9.35;34.61;93052.69;5025918;28;20059;-65
2023/03/11 10:41:51;;;;;;;4.20;2.00;;;;;;;14.28;27.82;93041.22;5027839;28;20034;-67
2023/03/11 10:44:24;;;;;;;4.43;2.50;;;;;;;15.96;25.81;93035.44;5028478;28;20107;-64
2023/03/11 10:46:51;;;;;;;4.88;2.10;;;;;;;9.71;31.29;93047.06;5027708;28;20052;-63
2023/03/11 10:49:18;;;;;;;4.73;2.30;;;;;;;9.34;33.95;93048.41;5028074;28;20052;-64
2023/03/11 10:51:50;;;;;;;4.82;1.98;;;;;;;6.46;37.20;93055.00;5026449;28;20045;-62
2023/03/11 10:54:31;;;;;;;4.38;2.30;;;;;;;8.99;34.98;93053.53;5028044;28;20041;-63
2023/03/11 10:57:01;;;;;;;5.45;2.47;;;;;;;9.11;34.51;93055.59;5027533;28;20046;-62
2023/03/11 10:59:46;;;;;;;4.15;1.95;;;;;;;15.71;26.19;93041.41;5026593;28;20053;-63
2023/03/11 11:02:26;;;;;;;5.50;1.90;;;;;;;10.28;29.98;93053.00;5027369;28;22122;-62
2023/03/11 11:05:12;;;;;;;3.25;1.92;;;;;;;6.45;36.90;93064.34;5027500;28;20727;-63
2023/03/11 11:07:40;;;;;;;4.88;2.17;;;;;;;13.22;27.86;93058.19;5028321;28;20119;-62
2023/03/11 11:10:19;;;;;;;4.40;2.10;;;;;;;8.43;33.95;93059.84;5027299;28;20265;-62
2023/03/11 11:13:11;;;;;;;3.40;2.00;;;;;;;9.45;32.13;93056.38;5027326;28;20049;-62
2023/03/11 11:15:51;;;;;;;3.70;1.97;;;;;;;12.36;28.33;93048.41;5030793;28;20048;-62
2023/03/11 11:18:22;;;;;;;3.97;1.98;;;;;;;14.55;26.67;93045.97;5023061;28;20038;-62
2023/03/11 11:21:08;;;;;;;3.38;1.90;;;;;;;16.07;25.03;93048.75;5028040;28;20041;-62
2023/03/11 11:23:42;;;;;;;4.22;2.00;;;;;;;11.27;30.42;93050.47;5030665;28;20401;-62
2023/03/11 11:26:24;;;;;;;3.40;2.10;;;;;;;9.24;31.32;93047.47;5029798;28;20835;-63
2023/03/11 11:29:04;;;;;;;3.90;2.20;;;;;;;8.76;32.26;93043.50;5019522;28;20068;-62
2023/03/11 11:31:36;;;;;;;4.72;2.20;;;;;;;8.07;33.21;93038.69;5029490;28;20106;-62
2023/03/11 11:34:05;;;;;;;4.53;2.10;;;;;;;7.16;34.50;93044.22;5030097;28;20047;-66
2023/03/11 11:36:38;;;;;;;4.05;1.88;;;;;;;7.43;33.34;93031.69;5030140;28;20102;-65
2023/03/11 11:39:16;;;;;;;3.63;1.80;;;;;;;8.75;32.12;93028.28;5027710;28;20577;-62
2023/03/11 11:41:44;;;;;;;3.60;1.80;;;;;;;7.37;32.05;93031.41;5018823;28;20433;-63
2023/03/11 11:44:16;;;;;;;4.50;3.08;;;;;;;8.74;33.45;93016.56;5025496;28;20396;-63